Terminal Aerodrome Forecast
Issued by NWS

Home | Current Version | Previous Version | Text Only | Print | Product List | Glossary On
Versions: 1 2 3 4 5 6 7 8 9 10 11 12 13 14 15 16 17 18 19 20 21 22 23 24 25 26 27 28 29 30
000
FTUS43 KLOT 310107 AAA
TAFGYY
TAF AMD
KGYY 310107Z 3101/3124 01012G18KT 3SM -SHRA BR BKN004 OVC009
     FM310300 01012G18KT 3SM -RADZ BR OVC004
     FM311300 36014G22KT 6SM BR VCSH OVC005
     FM311800 36015G25KT P6SM OVC009=

USA.gov is the U.S. government's official web portal to all federal, state and local government web resources and services.